Current Conditions
Partly Cloudy
Conditions



Pressure
29.92 (inHG) - 1013.21 (mb)
Visibility

10.0 (miles) - 16.1 (km)
Temperature
86  °F
Temperature
50  °F
Dewpoint
29  %
 Humidity
Wind Speed
13  mph
11  kts
21  km/h
5.8  m/s
Wind Direction
N
45°
E
90°
135°
S
180°
225°
W
270°
315°
 190°

Due South
Airport Data
MMLP
Manuel Márquez de León International Airport
Metar :MMLP 251740Z 19011KT 10SM FEW100 FEW200 30/10 A2992 RMK SLP130 57007 901 8/038
Tue 25th June 10:40 am
Raw Metar Info
Raw METAR is the most common format in the world for the transmission of observational weather data. It is highly standardized through the International Civil Aviation Organization (ICAO), which allows it to be understood throughout most of the world.
API Info
Data Provided by
https://www.checkwx.com/weather/MMLP

Aviation Weather providing METAR, TAF, AIRMET, SIGMET and OUTLOOK Weather Reports
© Info
CSS/SVG/PHP scripts were developed by weather34 for use in the weather34 template © 2015-2024

Guide Info provided by Metar-Wikipedia